createdAt,value
2022-12-04T06:41:38.942Z,102938.47
2022-12-04T06:44:07.022Z,102937.88
2022-12-04T06:46:34.993Z,102943.88
2022-12-04T06:49:03.245Z,102942.94
2022-12-04T06:51:36.467Z,102943.63
2022-12-04T06:54:05.112Z,102942.94
2022-12-04T06:56:33.739Z,102936.78
2022-12-04T06:59:04.210Z,102937.78
2022-12-04T07:01:34.503Z,102927.63
2022-12-04T07:04:04.092Z,102939.34
2022-12-04T07:06:33.966Z,102935.63
2022-12-04T07:09:04.602Z,102931.44
2022-12-04T07:11:32.530Z,102935.88
2022-12-04T07:14:00.429Z,102936.91
2022-12-04T07:16:31.807Z,102941.28
2022-12-04T07:19:03.846Z,102938.75
2022-12-04T07:21:32.136Z,102942.81
2022-12-04T07:24:01.378Z,102939.25
2022-12-04T07:26:30.591Z,102940.38
2022-12-04T07:28:59.047Z,102934.81
2022-12-04T07:31:29.572Z,102923.69
2022-12-04T07:33:58.772Z,102935.22
2022-12-04T07:36:27.522Z,102936.34
2022-12-04T07:38:55.702Z,102942.66
2022-12-04T07:41:24.116Z,102954.56
2022-12-04T07:43:52.032Z,102952.44
2022-12-04T07:46:22.537Z,102960.34
2022-12-04T07:48:51.740Z,102954.38
2022-12-04T07:51:20.942Z,102966.63
2022-12-04T07:53:50.209Z,102959.88
2022-12-04T07:56:18.771Z,102948.59
2022-12-04T07:58:47.436Z,102958.25
2022-12-04T08:01:17.060Z,102964.13
2022-12-04T08:34:15.900Z,102958.66
2022-12-04T08:36:43.768Z,102948.72
2022-12-04T08:39:11.895Z,102955.63
2022-12-04T08:41:39.984Z,102957.44
2022-12-04T08:44:08.973Z,102946.69
2022-12-04T08:46:36.949Z,102946.16
2022-12-04T08:49:04.812Z,102949.53
2022-12-04T08:51:34.154Z,102950.97
2022-12-04T08:54:04.462Z,102951.06
2022-12-04T08:56:33.649Z,102954.50
2022-12-04T08:59:02.027Z,102952.03
2022-12-04T09:01:30.454Z,102950.34
2022-12-04T09:03:58.803Z,102950.34
2022-12-04T09:06:26.537Z,102940.03
2022-12-04T09:08:56.819Z,102944.94
2022-12-04T09:11:26.575Z,102940.81
2022-12-04T09:13:54.720Z,102943.56
2022-12-04T09:16:24.475Z,102930.34
2022-12-04T09:18:53.049Z,102934.53
2022-12-04T09:21:22.864Z,102939.31
2022-12-04T09:23:51.183Z,102938.97
2022-12-04T09:26:26.054Z,102940.66
2022-12-04T09:28:54.914Z,102939.69
2022-12-04T09:31:23.837Z,102939.69
2022-12-04T09:33:51.937Z,102920.50
2022-12-04T09:36:20.137Z,102931.97
2022-12-04T09:38:49.206Z,102929.38
2022-12-04T09:41:47.960Z,102937.13
2022-12-04T09:44:21.595Z,102922.44
2022-12-04T09:46:54.921Z,102921.13
2022-12-04T09:49:27.660Z,102918.91
2022-12-04T09:52:00.620Z,102916.31
2022-12-04T09:54:32.879Z,102921.31
2022-12-04T09:57:08.912Z,102925.50
2022-12-04T09:59:38.351Z,102913.25
2022-12-04T10:02:28.719Z,102916.91
2022-12-04T10:04:56.746Z,102913.97
2022-12-04T10:07:28.941Z,102920.97
2022-12-04T10:10:03.116Z,102915.28
2022-12-04T10:12:46.588Z,102903.84
2022-12-04T10:15:26.433Z,102906.66
2022-12-04T10:18:06.482Z,102912.34
2022-12-04T10:21:00.740Z,102915.88
2022-12-04T10:23:38.769Z,102902.03
2022-12-04T10:26:14.750Z,102901.50
2022-12-04T10:28:53.542Z,102898.47
2022-12-04T10:31:24.902Z,102884.19
2022-12-04T10:33:56.444Z,102895.91
2022-12-04T10:36:29.433Z,102896.97
2022-12-04T10:38:59.790Z,102901.31
2022-12-04T10:41:33.760Z,102895.09
2022-12-04T10:44:03.132Z,102893.44
2022-12-04T10:46:33.872Z,102895.28
2022-12-04T10:49:05.653Z,102891.00
2022-12-04T10:51:38.496Z,102897.03
2022-12-04T10:54:18.733Z,102894.00
2022-12-04T10:56:54.337Z,102892.50
2022-12-04T10:59:23.924Z,102895.03
2022-12-04T11:02:03.083Z,102898.63
2022-12-04T11:04:35.483Z,102897.75
2022-12-04T11:07:05.870Z,102887.34
2022-12-04T11:09:34.320Z,102882.50
2022-12-04T11:12:08.155Z,102893.78
2022-12-04T11:14:38.250Z,102888.81
2022-12-04T11:17:07.846Z,102892.34
2022-12-04T11:19:36.153Z,102898.25
2022-12-04T11:22:14.136Z,102898.63
2022-12-04T11:24:43.382Z,102898.06
2022-12-04T11:27:20.086Z,102900.31
2022-12-04T11:29:50.485Z,102892.69
2022-12-04T11:32:22.898Z,102883.75
2022-12-04T11:34:52.830Z,102888.97
2022-12-04T11:37:25.042Z,102888.19
2022-12-04T11:39:55.479Z,102886.72
2022-12-04T11:42:25.521Z,102887.06
2022-12-04T11:44:56.635Z,102883.38
2022-12-04T11:47:27.023Z,102886.28
2022-12-04T11:50:00.832Z,102879.34
2022-12-04T11:52:39.004Z,102874.09
2022-12-04T11:55:15.447Z,102864.38
2022-12-04T11:57:50.238Z,102875.22
2022-12-04T12:00:21.564Z,102867.41
2022-12-04T12:03:09.792Z,102866.69
2022-12-04T12:06:01.062Z,102869.19
2022-12-04T12:08:43.395Z,102855.47
2022-12-04T12:11:26.007Z,102867.56
2022-12-04T12:14:04.312Z,102867.03
2022-12-04T12:16:50.065Z,102852.38
2022-12-04T12:19:36.704Z,102851.72
2022-12-04T20:41:38.457Z,102863.78
2022-12-04T20:44:08.366Z,102867.16
2022-12-04T20:46:39.510Z,102857.56
2022-12-04T20:49:18.768Z,102851.47
2022-12-04T20:51:49.376Z,102866.38
2022-12-04T20:54:20.338Z,102863.78
2022-12-04T20:56:50.459Z,102859.38
2022-12-04T20:59:22.606Z,102878.88
2022-12-04T21:01:51.795Z,102869.38
2022-12-04T21:04:20.081Z,102865.06
2022-12-04T21:06:48.009Z,102862.03
2022-12-04T21:09:18.142Z,102864.81
2022-12-04T21:11:47.762Z,102860.38
2022-12-04T21:14:18.910Z,102859.94
2022-12-04T21:16:47.884Z,102862.41
2022-12-04T21:19:17.204Z,102861.78
2022-12-04T21:21:45.558Z,102860.81
2022-12-04T21:24:14.617Z,102864.81
2022-12-04T21:26:42.647Z,102858.88
2022-12-04T21:29:11.094Z,102865.97
2022-12-04T21:31:40.514Z,102863.91
2022-12-04T21:34:11.236Z,102850.53
2022-12-04T21:36:39.135Z,102854.97
2022-12-04T21:39:07.327Z,102867.56
2022-12-04T21:41:35.284Z,102858.09
2022-12-04T21:44:04.311Z,102864.91
2022-12-04T21:46:32.117Z,102861.09
2022-12-04T21:49:01.283Z,102861.19
2022-12-04T21:51:55.809Z,102868.09
2022-12-04T21:54:16.786Z,102859.50
2022-12-04T21:56:44.746Z,102861.97
2022-12-04T21:59:12.609Z,102873.09
2022-12-04T22:01:41.102Z,102857.56
2022-12-04T22:04:10.255Z,102859.41
2022-12-04T22:06:38.727Z,102853.38
2022-12-04T22:09:08.677Z,102849.47
2022-12-04T22:11:36.770Z,102849.47
2022-12-04T22:14:04.925Z,102845.75
2022-12-04T22:16:36.947Z,102845.25
2022-12-04T22:19:07.723Z,102851.06
2022-12-04T22:21:37.545Z,102843.28
2022-12-04T22:24:06.027Z,102842.47
2022-12-04T22:26:33.686Z,102854.63
2022-12-04T22:29:03.173Z,102853.56
2022-12-04T22:31:32.488Z,102852.66
2022-12-04T22:34:01.511Z,102857.81
2022-12-04T22:36:31.834Z,102854.25
2022-12-04T22:39:10.212Z,102848.25
2022-12-04T22:41:39.059Z,102856.22
2022-12-04T22:44:06.652Z,102854.47
2022-12-04T22:46:34.577Z,102852.63
2022-12-04T22:49:02.372Z,102851.69
2022-12-04T22:51:30.190Z,102841.16
2022-12-04T22:53:58.735Z,102860.31
2022-12-04T22:56:29.866Z,102847.38
2022-12-04T22:58:58.453Z,102850.47
2022-12-04T23:01:28.322Z,102851.09
2022-12-04T23:03:56.390Z,102852.69
2022-12-04T23:06:25.969Z,102848.88
2022-12-04T23:08:55.324Z,102853.91
2022-12-04T23:11:24.364Z,102853.91
2022-12-04T23:13:56.202Z,102850.34
2022-12-04T23:16:25.177Z,102849.47
2022-12-04T23:18:53.340Z,102856.41
2022-12-04T23:21:22.127Z,102843.47
2022-12-04T23:23:52.413Z,102844.19
2022-12-04T23:26:21.559Z,102843.09
2022-12-04T23:28:49.503Z,102836.38
2022-12-04T23:31:19.165Z,102842.38
2022-12-04T23:33:46.855Z,102840.78
2022-12-04T23:36:15.629Z,102845.94
2022-12-04T23:38:44.641Z,102842.59
2022-12-04T23:41:14.799Z,102834.78
2022-12-04T23:43:43.014Z,102846.84
2022-12-04T23:46:12.842Z,102838.31
2022-12-04T23:48:43.680Z,102839.31
2022-12-04T23:51:13.479Z,102831.31
2022-12-04T23:53:41.398Z,102835.84
2022-12-04T23:56:12.480Z,102824.75
2022-12-04T23:58:42.089Z,102832.56
